sensor_id;sensor_type;location;lat;lon;timestamp;P1;durP1;ratioP1;P2;durP2;ratioP2
22060;SDS011;11194;48.092;-1.382;2023-07-29T00:02:11;3.08;;;2.20;;
22060;SDS011;11194;48.092;-1.382;2023-07-29T00:04:37;4.05;;;2.15;;
22060;SDS011;11194;48.092;-1.382;2023-07-29T00:07:03;3.90;;;2.63;;
22060;SDS011;11194;48.092;-1.382;2023-07-29T00:09:29;2.97;;;2.10;;
22060;SDS011;11194;48.092;-1.382;2023-07-29T00:11:55;3.45;;;2.45;;
22060;SDS011;11194;48.092;-1.382;2023-07-29T00:14:21;2.75;;;2.03;;
22060;SDS011;11194;48.092;-1.382;2023-07-29T00:16:47;2.55;;;2.30;;
22060;SDS011;11194;48.092;-1.382;2023-07-29T00:19:13;3.65;;;2.67;;
22060;SDS011;11194;48.092;-1.382;2023-07-29T00:21:39;3.20;;;2.30;;
22060;SDS011;11194;48.092;-1.382;2023-07-29T00:24:06;3.08;;;2.40;;
22060;SDS011;11194;48.092;-1.382;2023-07-29T00:26:32;3.30;;;2.20;;
22060;SDS011;11194;48.092;-1.382;2023-07-29T00:28:58;2.50;;;2.20;;
22060;SDS011;11194;48.092;-1.382;2023-07-29T00:31:24;3.33;;;2.13;;
22060;SDS011;11194;48.092;-1.382;2023-07-29T00:33:50;4.65;;;2.40;;
22060;SDS011;11194;48.092;-1.382;2023-07-29T00:36:17;3.92;;;2.30;;
22060;SDS011;11194;48.092;-1.382;2023-07-29T00:38:44;4.55;;;2.40;;
22060;SDS011;11194;48.092;-1.382;2023-07-29T00:41:10;5.72;;;2.30;;
22060;SDS011;11194;48.092;-1.382;2023-07-29T00:43:38;4.53;;;2.20;;
22060;SDS011;11194;48.092;-1.382;2023-07-29T00:46:04;2.70;;;2.30;;
22060;SDS011;11194;48.092;-1.382;2023-07-29T00:48:31;3.30;;;2.38;;
22060;SDS011;11194;48.092;-1.382;2023-07-29T00:50:57;3.22;;;2.38;;
22060;SDS011;11194;48.092;-1.382;2023-07-29T00:53:23;3.40;;;2.38;;
22060;SDS011;11194;48.092;-1.382;2023-07-29T00:55:49;2.88;;;2.13;;
22060;SDS011;11194;48.092;-1.382;2023-07-29T00:58:15;2.80;;;2.40;;
22060;SDS011;11194;48.092;-1.382;2023-07-29T01:00:41;4.40;;;2.50;;
22060;SDS011;11194;48.092;-1.382;2023-07-29T01:03:07;3.17;;;2.30;;
22060;SDS011;11194;48.092;-1.382;2023-07-29T01:05:36;3.55;;;2.42;;
22060;SDS011;11194;48.092;-1.382;2023-07-29T01:08:08;4.10;;;2.47;;
22060;SDS011;11194;48.092;-1.382;2023-07-29T01:15:36;3.70;;;3.15;;
22060;SDS011;11194;48.092;-1.382;2023-07-29T01:18:06;6.75;;;4.43;;
22060;SDS011;11194;48.092;-1.382;2023-07-29T01:20:35;8.82;;;4.00;;
22060;SDS011;11194;48.092;-1.382;2023-07-29T01:23:03;4.60;;;3.30;;
22060;SDS011;11194;48.092;-1.382;2023-07-29T01:25:29;6.03;;;3.20;;
22060;SDS011;11194;48.092;-1.382;2023-07-29T01:27:55;5.32;;;3.03;;
22060;SDS011;11194;48.092;-1.382;2023-07-29T01:30:22;2.87;;;1.90;;
22060;SDS011;11194;48.092;-1.382;2023-07-29T01:32:55;6.18;;;4.68;;
22060;SDS011;11194;48.092;-1.382;2023-07-29T01:38:21;9.75;;;8.38;;
22060;SDS011;11194;48.092;-1.382;2023-07-29T01:40:50;10.90;;;8.20;;
22060;SDS011;11194;48.092;-1.382;2023-07-29T01:43:17;11.20;;;8.85;;
22060;SDS011;11194;48.092;-1.382;2023-07-29T01:45:48;13.45;;;9.57;;
22060;SDS011;11194;48.092;-1.382;2023-07-29T01:48:14;10.90;;;8.18;;
22060;SDS011;11194;48.092;-1.382;2023-07-29T01:50:40;12.75;;;9.32;;
22060;SDS011;11194;48.092;-1.382;2023-07-29T01:53:06;9.73;;;8.77;;
22060;SDS011;11194;48.092;-1.382;2023-07-29T01:55:32;15.63;;;10.15;;
22060;SDS011;11194;48.092;-1.382;2023-07-29T01:57:58;10.27;;;9.02;;
22060;SDS011;11194;48.092;-1.382;2023-07-29T02:00:24;9.48;;;8.48;;
22060;SDS011;11194;48.092;-1.382;2023-07-29T02:02:50;8.63;;;7.72;;
22060;SDS011;11194;48.092;-1.382;2023-07-29T02:05:16;6.25;;;5.65;;
22060;SDS011;11194;48.092;-1.382;2023-07-29T02:07:42;8.52;;;6.97;;
22060;SDS011;11194;48.092;-1.382;2023-07-29T02:10:08;9.95;;;8.00;;
22060;SDS011;11194;48.092;-1.382;2023-07-29T02:12:34;11.65;;;9.05;;
22060;SDS011;11194;48.092;-1.382;2023-07-29T02:15:00;12.35;;;8.75;;
22060;SDS011;11194;48.092;-1.382;2023-07-29T02:17:26;10.90;;;9.35;;
22060;SDS011;11194;48.092;-1.382;2023-07-29T02:19:52;9.05;;;7.35;;
22060;SDS011;11194;48.092;-1.382;2023-07-29T02:22:18;6.57;;;4.35;;
22060;SDS011;11194;48.092;-1.382;2023-07-29T02:24:44;4.30;;;3.40;;
22060;SDS011;11194;48.092;-1.382;2023-07-29T02:27:11;3.45;;;2.88;;
22060;SDS011;11194;48.092;-1.382;2023-07-29T02:29:37;3.42;;;2.50;;
22060;SDS011;11194;48.092;-1.382;2023-07-29T02:32:03;3.88;;;2.90;;
22060;SDS011;11194;48.092;-1.382;2023-07-29T02:34:29;4.15;;;2.78;;
22060;SDS011;11194;48.092;-1.382;2023-07-29T02:36:55;3.58;;;2.65;;
22060;SDS011;11194;48.092;-1.382;2023-07-29T02:39:22;5.50;;;3.58;;
22060;SDS011;11194;48.092;-1.382;2023-07-29T02:41:48;3.08;;;2.42;;
22060;SDS011;11194;48.092;-1.382;2023-07-29T02:44:15;4.95;;;2.63;;
22060;SDS011;11194;48.092;-1.382;2023-07-29T02:46:41;5.47;;;2.13;;
22060;SDS011;11194;48.092;-1.382;2023-07-29T02:49:07;4.80;;;2.40;;
22060;SDS011;11194;48.092;-1.382;2023-07-29T02:51:33;7.15;;;2.67;;
22060;SDS011;11194;48.092;-1.382;2023-07-29T02:53:59;4.32;;;2.83;;
22060;SDS011;11194;48.092;-1.382;2023-07-29T02:56:25;3.33;;;2.38;;
22060;SDS011;11194;48.092;-1.382;2023-07-29T02:58:51;4.32;;;2.55;;
22060;SDS011;11194;48.092;-1.382;2023-07-29T03:01:17;4.55;;;2.65;;
22060;SDS011;11194;48.092;-1.382;2023-07-29T03:03:43;4.80;;;2.80;;
22060;SDS011;11194;48.092;-1.382;2023-07-29T03:06:13;6.15;;;3.10;;
22060;SDS011;11194;48.092;-1.382;2023-07-29T03:08:40;3.53;;;2.95;;
22060;SDS011;11194;48.092;-1.382;2023-07-29T03:11:07;4.75;;;3.00;;
22060;SDS011;11194;48.092;-1.382;2023-07-29T03:13:33;5.50;;;3.20;;
22060;SDS011;11194;48.092;-1.382;2023-07-29T03:16:09;4.07;;;3.08;;
22060;SDS011;11194;48.092;-1.382;2023-07-29T03:18:35;5.43;;;3.15;;
22060;SDS011;11194;48.092;-1.382;2023-07-29T03:21:02;4.15;;;2.92;;
22060;SDS011;11194;48.092;-1.382;2023-07-29T03:23:28;5.13;;;3.63;;
22060;SDS011;11194;48.092;-1.382;2023-07-29T03:25:54;5.25;;;3.83;;
22060;SDS011;11194;48.092;-1.382;2023-07-29T03:28:25;6.03;;;4.32;;
22060;SDS011;11194;48.092;-1.382;2023-07-29T03:30:52;5.65;;;3.83;;
22060;SDS011;11194;48.092;-1.382;2023-07-29T03:33:18;4.53;;;3.85;;
22060;SDS011;11194;48.092;-1.382;2023-07-29T03:35:44;4.70;;;3.22;;
22060;SDS011;11194;48.092;-1.382;2023-07-29T03:38:11;4.55;;;3.38;;
22060;SDS011;11194;48.092;-1.382;2023-07-29T03:40:37;7.07;;;4.13;;
22060;SDS011;11194;48.092;-1.382;2023-07-29T03:43:04;4.93;;;4.10;;
22060;SDS011;11194;48.092;-1.382;2023-07-29T03:45:30;6.57;;;3.42;;
22060;SDS011;11194;48.092;-1.382;2023-07-29T03:47:56;4.07;;;3.55;;
22060;SDS011;11194;48.092;-1.382;2023-07-29T03:50:22;5.15;;;3.90;;
22060;SDS011;11194;48.092;-1.382;2023-07-29T03:52:49;3.63;;;3.28;;
22060;SDS011;11194;48.092;-1.382;2023-07-29T03:55:15;4.93;;;3.10;;
22060;SDS011;11194;48.092;-1.382;2023-07-29T03:57:41;3.72;;;2.67;;
22060;SDS011;11194;48.092;-1.382;2023-07-29T04:00:07;2.45;;;2.25;;
22060;SDS011;11194;48.092;-1.382;2023-07-29T04:02:36;2.67;;;2.10;;
22060;SDS011;11194;48.092;-1.382;2023-07-29T04:05:03;3.95;;;2.42;;
22060;SDS011;11194;48.092;-1.382;2023-07-29T04:07:29;2.80;;;2.28;;
22060;SDS011;11194;48.092;-1.382;2023-07-29T04:09:55;3.95;;;2.50;;
22060;SDS011;11194;48.092;-1.382;2023-07-29T04:12:22;2.50;;;2.30;;
22060;SDS011;11194;48.092;-1.382;2023-07-29T04:14:48;3.80;;;2.28;;
22060;SDS011;11194;48.092;-1.382;2023-07-29T04:17:14;5.45;;;2.78;;
22060;SDS011;11194;48.092;-1.382;2023-07-29T04:19:40;2.42;;;2.22;;
22060;SDS011;11194;48.092;-1.382;2023-07-29T04:22:06;2.40;;;2.20;;
22060;SDS011;11194;48.092;-1.382;2023-07-29T04:24:32;2.97;;;2.22;;
22060;SDS011;11194;48.092;-1.382;2023-07-29T04:26:58;2.97;;;2.50;;
22060;SDS011;11194;48.092;-1.382;2023-07-29T04:29:24;2.55;;;2.20;;
22060;SDS011;11194;48.092;-1.382;2023-07-29T04:31:50;3.80;;;2.92;;
22060;SDS011;11194;48.092;-1.382;2023-07-29T04:34:17;3.90;;;3.20;;
22060;SDS011;11194;48.092;-1.382;2023-07-29T04:36:43;3.88;;;2.72;;
22060;SDS011;11194;48.092;-1.382;2023-07-29T04:39:10;3.67;;;2.80;;
22060;SDS011;11194;48.092;-1.382;2023-07-29T04:41:36;3.70;;;2.88;;
22060;SDS011;11194;48.092;-1.382;2023-07-29T04:44:02;4.93;;;3.20;;
22060;SDS011;11194;48.092;-1.382;2023-07-29T04:46:28;4.97;;;3.28;;
22060;SDS011;11194;48.092;-1.382;2023-07-29T04:48:54;7.05;;;3.80;;
22060;SDS011;11194;48.092;-1.382;2023-07-29T04:51:20;3.78;;;3.25;;
22060;SDS011;11194;48.092;-1.382;2023-07-29T04:53:46;4.88;;;3.70;;
22060;SDS011;11194;48.092;-1.382;2023-07-29T04:56:12;7.70;;;3.97;;
22060;SDS011;11194;48.092;-1.382;2023-07-29T04:58:38;5.32;;;3.40;;
22060;SDS011;11194;48.092;-1.382;2023-07-29T05:01:04;4.68;;;3.47;;
22060;SDS011;11194;48.092;-1.382;2023-07-29T05:03:30;4.88;;;3.75;;
22060;SDS011;11194;48.092;-1.382;2023-07-29T05:05:57;5.75;;;3.67;;
22060;SDS011;11194;48.092;-1.382;2023-07-29T05:08:24;5.18;;;3.15;;
22060;SDS011;11194;48.092;-1.382;2023-07-29T05:10:51;5.43;;;3.25;;
22060;SDS011;11194;48.092;-1.382;2023-07-29T05:13:17;4.88;;;3.42;;
22060;SDS011;11194;48.092;-1.382;2023-07-29T05:15:44;3.88;;;3.17;;
22060;SDS011;11194;48.092;-1.382;2023-07-29T05:18:11;4.43;;;3.35;;
22060;SDS011;11194;48.092;-1.382;2023-07-29T05:20:37;4.10;;;2.97;;
22060;SDS011;11194;48.092;-1.382;2023-07-29T05:23:03;5.15;;;3.03;;
22060;SDS011;11194;48.092;-1.382;2023-07-29T05:25:29;3.80;;;2.90;;
22060;SDS011;11194;48.092;-1.382;2023-07-29T05:27:55;3.08;;;2.80;;
22060;SDS011;11194;48.092;-1.382;2023-07-29T05:30:22;2.92;;;2.17;;
22060;SDS011;11194;48.092;-1.382;2023-07-29T05:32:48;2.55;;;2.35;;
22060;SDS011;11194;48.092;-1.382;2023-07-29T05:35:14;2.55;;;2.35;;
22060;SDS011;11194;48.092;-1.382;2023-07-29T05:37:40;3.00;;;2.40;;
22060;SDS011;11194;48.092;-1.382;2023-07-29T05:40:07;3.05;;;2.13;;
22060;SDS011;11194;48.092;-1.382;2023-07-29T05:42:34;2.50;;;2.05;;
22060;SDS011;11194;48.092;-1.382;2023-07-29T05:45:00;2.55;;;2.00;;
22060;SDS011;11194;48.092;-1.382;2023-07-29T05:47:26;2.45;;;2.05;;
22060;SDS011;11194;48.092;-1.382;2023-07-29T05:49:52;3.00;;;1.92;;
22060;SDS011;11194;48.092;-1.382;2023-07-29T05:52:19;2.35;;;1.88;;
22060;SDS011;11194;48.092;-1.382;2023-07-29T05:54:45;2.63;;;2.20;;
22060;SDS011;11194;48.092;-1.382;2023-07-29T05:57:12;2.40;;;2.20;;
22060;SDS011;11194;48.092;-1.382;2023-07-29T05:59:38;1.85;;;1.70;;
22060;SDS011;11194;48.092;-1.382;2023-07-29T06:02:04;2.20;;;1.83;;
22060;SDS011;11194;48.092;-1.382;2023-07-29T06:04:30;2.63;;;1.80;;
22060;SDS011;11194;48.092;-1.382;2023-07-29T06:06:56;2.40;;;1.77;;
22060;SDS011;11194;48.092;-1.382;2023-07-29T06:09:22;2.42;;;1.92;;
22060;SDS011;11194;48.092;-1.382;2023-07-29T06:11:50;2.28;;;2.08;;
22060;SDS011;11194;48.092;-1.382;2023-07-29T06:14:16;2.60;;;2.10;;
22060;SDS011;11194;48.092;-1.382;2023-07-29T06:16:42;4.03;;;2.20;;
22060;SDS011;11194;48.092;-1.382;2023-07-29T06:19:08;3.65;;;2.47;;
22060;SDS011;11194;48.092;-1.382;2023-07-29T06:21:34;3.00;;;2.00;;
22060;SDS011;11194;48.092;-1.382;2023-07-29T06:24:01;6.40;;;2.25;;
22060;SDS011;11194;48.092;-1.382;2023-07-29T06:26:27;4.35;;;2.30;;
22060;SDS011;11194;48.092;-1.382;2023-07-29T06:28:53;2.55;;;2.20;;
22060;SDS011;11194;48.092;-1.382;2023-07-29T06:31:19;3.05;;;2.10;;
22060;SDS011;11194;48.092;-1.382;2023-07-29T06:33:45;3.25;;;2.20;;
22060;SDS011;11194;48.092;-1.382;2023-07-29T06:36:11;2.72;;;2.15;;
22060;SDS011;11194;48.092;-1.382;2023-07-29T06:38:38;2.83;;;1.90;;
22060;SDS011;11194;48.092;-1.382;2023-07-29T06:41:04;2.60;;;2.10;;
22060;SDS011;11194;48.092;-1.382;2023-07-29T06:43:30;3.13;;;2.00;;
22060;SDS011;11194;48.092;-1.382;2023-07-29T06:45:56;3.08;;;2.00;;
22060;SDS011;11194;48.092;-1.382;2023-07-29T06:48:22;3.13;;;2.15;;
22060;SDS011;11194;48.092;-1.382;2023-07-29T06:50:48;2.40;;;1.98;;
22060;SDS011;11194;48.092;-1.382;2023-07-29T06:53:15;2.70;;;1.80;;
22060;SDS011;11194;48.092;-1.382;2023-07-29T06:55:42;2.92;;;2.22;;
22060;SDS011;11194;48.092;-1.382;2023-07-29T06:58:08;2.45;;;1.98;;
22060;SDS011;11194;48.092;-1.382;2023-07-29T07:00:35;2.25;;;2.05;;
22060;SDS011;11194;48.092;-1.382;2023-07-29T07:03:01;2.15;;;1.95;;
22060;SDS011;11194;48.092;-1.382;2023-07-29T07:05:27;2.17;;;1.98;;
22060;SDS011;11194;48.092;-1.382;2023-07-29T07:07:53;2.22;;;1.90;;
22060;SDS011;11194;48.092;-1.382;2023-07-29T07:10:19;1.90;;;1.40;;
22060;SDS011;11194;48.092;-1.382;2023-07-29T07:12:45;1.70;;;1.60;;
22060;SDS011;11194;48.092;-1.382;2023-07-29T07:15:11;2.03;;;1.77;;
22060;SDS011;11194;48.092;-1.382;2023-07-29T07:17:37;1.90;;;1.70;;
22060;SDS011;11194;48.092;-1.382;2023-07-29T07:20:04;2.53;;;1.88;;
22060;SDS011;11194;48.092;-1.382;2023-07-29T07:22:31;2.80;;;1.40;;
22060;SDS011;11194;48.092;-1.382;2023-07-29T07:24:57;2.72;;;1.95;;
22060;SDS011;11194;48.092;-1.382;2023-07-29T07:27:23;2.40;;;1.05;;
22060;SDS011;11194;48.092;-1.382;2023-07-29T07:29:49;1.80;;;1.58;;
22060;SDS011;11194;48.092;-1.382;2023-07-29T07:32:15;1.85;;;1.58;;
22060;SDS011;11194;48.092;-1.382;2023-07-29T07:34:41;2.72;;;1.50;;
22060;SDS011;11194;48.092;-1.382;2023-07-29T07:37:07;2.47;;;1.88;;
22060;SDS011;11194;48.092;-1.382;2023-07-29T07:39:33;1.90;;;1.67;;
22060;SDS011;11194;48.092;-1.382;2023-07-29T07:41:59;1.48;;;1.38;;
22060;SDS011;11194;48.092;-1.382;2023-07-29T07:44:25;1.85;;;1.40;;
22060;SDS011;11194;48.092;-1.382;2023-07-29T07:46:54;1.45;;;1.20;;
22060;SDS011;11194;48.092;-1.382;2023-07-29T07:49:20;1.77;;;1.25;;
22060;SDS011;11194;48.092;-1.382;2023-07-29T07:51:46;1.40;;;1.02;;
22060;SDS011;11194;48.092;-1.382;2023-07-29T07:54:12;3.30;;;1.10;;
22060;SDS011;11194;48.092;-1.382;2023-07-29T07:56:38;1.60;;;1.10;;
22060;SDS011;11194;48.092;-1.382;2023-07-29T07:59:04;2.78;;;1.92;;
22060;SDS011;11194;48.092;-1.382;2023-07-29T08:01:37;2.40;;;1.20;;
22060;SDS011;11194;48.092;-1.382;2023-07-29T08:04:03;1.27;;;1.17;;
22060;SDS011;11194;48.092;-1.382;2023-07-29T08:06:30;1.42;;;1.15;;
22060;SDS011;11194;48.092;-1.382;2023-07-29T08:08:56;1.90;;;1.42;;
22060;SDS011;11194;48.092;-1.382;2023-07-29T08:11:22;1.20;;;1.10;;
22060;SDS011;11194;48.092;-1.382;2023-07-29T08:13:48;2.25;;;1.00;;
22060;SDS011;11194;48.092;-1.382;2023-07-29T08:16:14;1.90;;;1.10;;
22060;SDS011;11194;48.092;-1.382;2023-07-29T08:18:40;2.95;;;1.05;;
22060;SDS011;11194;48.092;-1.382;2023-07-29T08:21:07;1.85;;;1.02;;
22060;SDS011;11194;48.092;-1.382;2023-07-29T08:23:34;1.67;;;0.90;;
22060;SDS011;11194;48.092;-1.382;2023-07-29T08:26:01;1.60;;;1.15;;
22060;SDS011;11194;48.092;-1.382;2023-07-29T08:28:28;2.08;;;1.10;;
22060;SDS011;11194;48.092;-1.382;2023-07-29T08:30:54;1.88;;;0.85;;
22060;SDS011;11194;48.092;-1.382;2023-07-29T08:33:20;2.05;;;1.00;;
22060;SDS011;11194;48.092;-1.382;2023-07-29T08:35:46;1.70;;;0.98;;
22060;SDS011;11194;48.092;-1.382;2023-07-29T08:38:12;3.22;;;1.30;;
22060;SDS011;11194;48.092;-1.382;2023-07-29T08:40:42;1.40;;;0.90;;
22060;SDS011;11194;48.092;-1.382;2023-07-29T08:43:11;1.38;;;1.10;;
22060;SDS011;11194;48.092;-1.382;2023-07-29T08:45:37;1.40;;;1.05;;
22060;SDS011;11194;48.092;-1.382;2023-07-29T08:48:06;2.20;;;1.30;;
22060;SDS011;11194;48.092;-1.382;2023-07-29T08:50:33;1.45;;;1.00;;
22060;SDS011;11194;48.092;-1.382;2023-07-29T08:53:01;2.15;;;1.30;;
22060;SDS011;11194;48.092;-1.382;2023-07-29T08:55:29;2.17;;;1.38;;
22060;SDS011;11194;48.092;-1.382;2023-07-29T08:57:55;2.53;;;1.20;;
22060;SDS011;11194;48.092;-1.382;2023-07-29T09:00:22;2.92;;;1.20;;
22060;SDS011;11194;48.092;-1.382;2023-07-29T09:02:48;1.58;;;1.15;;
22060;SDS011;11194;48.092;-1.382;2023-07-29T09:05:14;1.58;;;0.95;;
22060;SDS011;11194;48.092;-1.382;2023-07-29T09:07:40;1.80;;;1.05;;
22060;SDS011;11194;48.092;-1.382;2023-07-29T09:10:08;1.35;;;1.05;;
22060;SDS011;11194;48.092;-1.382;2023-07-29T09:12:36;1.63;;;1.13;;
22060;SDS011;11194;48.092;-1.382;2023-07-29T09:15:02;2.20;;;1.30;;
22060;SDS011;11194;48.092;-1.382;2023-07-29T09:17:30;3.75;;;1.58;;
22060;SDS011;11194;48.092;-1.382;2023-07-29T09:19:57;1.67;;;1.20;;
22060;SDS011;11194;48.092;-1.382;2023-07-29T09:22:23;1.48;;;1.20;;
22060;SDS011;11194;48.092;-1.382;2023-07-29T09:24:50;1.77;;;1.10;;
22060;SDS011;11194;48.092;-1.382;2023-07-29T09:27:26;3.55;;;1.40;;
22060;SDS011;11194;48.092;-1.382;2023-07-29T09:29:53;1.67;;;1.10;;
22060;SDS011;11194;48.092;-1.382;2023-07-29T09:32:20;2.15;;;1.33;;
22060;SDS011;11194;48.092;-1.382;2023-07-29T09:34:46;2.00;;;1.02;;
22060;SDS011;11194;48.092;-1.382;2023-07-29T09:37:22;2.35;;;1.20;;
22060;SDS011;11194;48.092;-1.382;2023-07-29T09:39:48;2.85;;;1.30;;
22060;SDS011;11194;48.092;-1.382;2023-07-29T09:42:18;2.75;;;1.20;;
22060;SDS011;11194;48.092;-1.382;2023-07-29T09:44:45;3.33;;;1.23;;
22060;SDS011;11194;48.092;-1.382;2023-07-29T09:47:45;1.95;;;0.90;;
22060;SDS011;11194;48.092;-1.382;2023-07-29T09:50:04;1.75;;;1.38;;
22060;SDS011;11194;48.092;-1.382;2023-07-29T09:52:30;2.50;;;1.20;;
22060;SDS011;11194;48.092;-1.382;2023-07-29T09:54:56;1.27;;;1.10;;
22060;SDS011;11194;48.092;-1.382;2023-07-29T09:57:22;2.00;;;1.10;;
22060;SDS011;11194;48.092;-1.382;2023-07-29T09:59:54;1.73;;;1.10;;
22060;SDS011;11194;48.092;-1.382;2023-07-29T10:02:21;1.95;;;1.30;;
22060;SDS011;11194;48.092;-1.382;2023-07-29T10:04:50;2.20;;;1.25;;
22060;SDS011;11194;48.092;-1.382;2023-07-29T10:07:16;1.20;;;1.05;;
22060;SDS011;11194;48.092;-1.382;2023-07-29T10:09:43;2.05;;;1.00;;
22060;SDS011;11194;48.092;-1.382;2023-07-29T10:12:09;1.67;;;1.33;;
22060;SDS011;11194;48.092;-1.382;2023-07-29T10:14:37;1.92;;;1.50;;
22060;SDS011;11194;48.092;-1.382;2023-07-29T10:17:06;1.55;;;1.15;;
22060;SDS011;11194;48.092;-1.382;2023-07-29T10:19:32;2.90;;;1.58;;
22060;SDS011;11194;48.092;-1.382;2023-07-29T10:22:00;1.48;;;1.20;;
22060;SDS011;11194;48.092;-1.382;2023-07-29T10:24:29;2.17;;;1.30;;
22060;SDS011;11194;48.092;-1.382;2023-07-29T10:26:59;2.08;;;1.48;;
22060;SDS011;11194;48.092;-1.382;2023-07-29T10:29:28;2.90;;;1.10;;
22060;SDS011;11194;48.092;-1.382;2023-07-29T10:31:57;2.35;;;1.40;;
22060;SDS011;11194;48.092;-1.382;2023-07-29T10:34:24;2.55;;;1.17;;
22060;SDS011;11194;48.092;-1.382;2023-07-29T10:36:50;1.83;;;1.20;;
22060;SDS011;11194;48.092;-1.382;2023-07-29T10:39:17;3.33;;;1.40;;
22060;SDS011;11194;48.092;-1.382;2023-07-29T10:41:56;3.38;;;1.23;;
22060;SDS011;11194;48.092;-1.382;2023-07-29T10:47:10;1.65;;;1.08;;
22060;SDS011;11194;48.092;-1.382;2023-07-29T10:49:39;2.17;;;1.05;;
22060;SDS011;11194;48.092;-1.382;2023-07-29T10:52:06;1.23;;;1.00;;
22060;SDS011;11194;48.092;-1.382;2023-07-29T10:54:41;2.28;;;1.30;;
22060;SDS011;11194;48.092;-1.382;2023-07-29T10:57:07;2.08;;;1.13;;
22060;SDS011;11194;48.092;-1.382;2023-07-29T10:59:38;2.47;;;1.27;;
22060;SDS011;11194;48.092;-1.382;2023-07-29T11:02:11;1.27;;;1.00;;
22060;SDS011;11194;48.092;-1.382;2023-07-29T11:04:50;1.85;;;1.05;;
22060;SDS011;11194;48.092;-1.382;2023-07-29T11:20:10;2.53;;;1.23;;
22060;SDS011;11194;48.092;-1.382;2023-07-29T11:22:37;1.42;;;1.25;;
22060;SDS011;11194;48.092;-1.382;2023-07-29T11:25:03;2.30;;;1.45;;
22060;SDS011;11194;48.092;-1.382;2023-07-29T11:27:30;4.03;;;1.25;;
22060;SDS011;11194;48.092;-1.382;2023-07-29T11:29:59;3.15;;;1.38;;
22060;SDS011;11194;48.092;-1.382;2023-07-29T11:32:26;1.90;;;1.35;;
22060;SDS011;11194;48.092;-1.382;2023-07-29T11:34:52;2.50;;;1.20;;
22060;SDS011;11194;48.092;-1.382;2023-07-29T11:37:18;2.20;;;1.15;;
22060;SDS011;11194;48.092;-1.382;2023-07-29T11:39:46;1.73;;;1.40;;
22060;SDS011;11194;48.092;-1.382;2023-07-29T11:42:13;2.10;;;1.40;;
22060;SDS011;11194;48.092;-1.382;2023-07-29T11:44:39;1.20;;;1.10;;
22060;SDS011;11194;48.092;-1.382;2023-07-29T11:47:09;1.65;;;1.30;;
22060;SDS011;11194;48.092;-1.382;2023-07-29T11:49:35;2.22;;;1.55;;
22060;SDS011;11194;48.092;-1.382;2023-07-29T11:52:06;2.75;;;1.58;;
22060;SDS011;11194;48.092;-1.382;2023-07-29T11:54:32;1.95;;;1.30;;
22060;SDS011;11194;48.092;-1.382;2023-07-29T11:56:58;2.35;;;1.55;;
22060;SDS011;11194;48.092;-1.382;2023-07-29T11:59:24;3.15;;;1.45;;
22060;SDS011;11194;48.092;-1.382;2023-07-29T12:01:51;4.40;;;1.35;;
22060;SDS011;11194;48.092;-1.382;2023-07-29T12:04:17;4.85;;;1.50;;
22060;SDS011;11194;48.092;-1.382;2023-07-29T12:06:43;4.90;;;1.52;;
22060;SDS011;11194;48.092;-1.382;2023-07-29T12:09:09;1.90;;;1.42;;
22060;SDS011;11194;48.092;-1.382;2023-07-29T12:11:35;1.50;;;1.17;;
22060;SDS011;11194;48.092;-1.382;2023-07-29T12:14:02;1.73;;;1.38;;
22060;SDS011;11194;48.092;-1.382;2023-07-29T12:16:28;1.88;;;1.20;;
22060;SDS011;11194;48.092;-1.382;2023-07-29T12:19:00;2.33;;;1.20;;
22060;SDS011;11194;48.092;-1.382;2023-07-29T12:21:26;2.78;;;1.30;;
22060;SDS011;11194;48.092;-1.382;2023-07-29T12:23:52;2.13;;;1.10;;
22060;SDS011;11194;48.092;-1.382;2023-07-29T12:26:18;1.58;;;1.10;;
22060;SDS011;11194;48.092;-1.382;2023-07-29T12:28:45;2.70;;;1.27;;
22060;SDS011;11194;48.092;-1.382;2023-07-29T12:31:12;1.90;;;1.30;;
22060;SDS011;11194;48.092;-1.382;2023-07-29T12:33:38;2.10;;;1.40;;
22060;SDS011;11194;48.092;-1.382;2023-07-29T12:36:04;1.35;;;1.08;;
22060;SDS011;11194;48.092;-1.382;2023-07-29T12:38:30;1.80;;;1.20;;
22060;SDS011;11194;48.092;-1.382;2023-07-29T12:40:56;2.88;;;1.70;;
22060;SDS011;11194;48.092;-1.382;2023-07-29T12:43:22;2.05;;;1.20;;
22060;SDS011;11194;48.092;-1.382;2023-07-29T12:45:49;1.90;;;1.25;;
22060;SDS011;11194;48.092;-1.382;2023-07-29T12:48:15;1.55;;;1.17;;
22060;SDS011;11194;48.092;-1.382;2023-07-29T12:50:41;3.15;;;1.40;;
22060;SDS011;11194;48.092;-1.382;2023-07-29T12:53:08;2.45;;;1.60;;
22060;SDS011;11194;48.092;-1.382;2023-07-29T12:55:37;2.03;;;1.40;;
22060;SDS011;11194;48.092;-1.382;2023-07-29T12:58:03;1.50;;;1.13;;
22060;SDS011;11194;48.092;-1.382;2023-07-29T13:00:30;2.90;;;1.50;;
22060;SDS011;11194;48.092;-1.382;2023-07-29T13:02:56;1.30;;;0.90;;
22060;SDS011;11194;48.092;-1.382;2023-07-29T13:05:22;1.63;;;1.40;;
22060;SDS011;11194;48.092;-1.382;2023-07-29T13:07:48;1.73;;;1.30;;
22060;SDS011;11194;48.092;-1.382;2023-07-29T13:10:14;3.17;;;1.25;;
22060;SDS011;11194;48.092;-1.382;2023-07-29T13:12:40;1.98;;;1.33;;
22060;SDS011;11194;48.092;-1.382;2023-07-29T13:15:06;1.67;;;1.25;;
22060;SDS011;11194;48.092;-1.382;2023-07-29T13:17:33;2.20;;;1.45;;
22060;SDS011;11194;48.092;-1.382;2023-07-29T13:19:59;2.17;;;1.55;;
22060;SDS011;11194;48.092;-1.382;2023-07-29T13:22:26;2.22;;;1.23;;
22060;SDS011;11194;48.092;-1.382;2023-07-29T13:24:52;2.05;;;1.20;;
22060;SDS011;11194;48.092;-1.382;2023-07-29T13:27:18;4.07;;;1.60;;
22060;SDS011;11194;48.092;-1.382;2023-07-29T13:29:44;1.70;;;1.33;;
22060;SDS011;11194;48.092;-1.382;2023-07-29T13:32:11;4.20;;;1.58;;
22060;SDS011;11194;48.092;-1.382;2023-07-29T13:34:37;4.35;;;1.30;;
22060;SDS011;11194;48.092;-1.382;2023-07-29T13:37:05;2.55;;;1.15;;
22060;SDS011;11194;48.092;-1.382;2023-07-29T13:39:31;2.40;;;1.42;;
22060;SDS011;11194;48.092;-1.382;2023-07-29T13:41:57;2.55;;;1.25;;
22060;SDS011;11194;48.092;-1.382;2023-07-29T13:44:23;3.65;;;1.45;;
22060;SDS011;11194;48.092;-1.382;2023-07-29T13:46:49;2.15;;;1.35;;
22060;SDS011;11194;48.092;-1.382;2023-07-29T13:49:15;2.28;;;1.42;;
22060;SDS011;11194;48.092;-1.382;2023-07-29T13:51:41;1.80;;;1.48;;
22060;SDS011;11194;48.092;-1.382;2023-07-29T13:54:08;2.50;;;1.50;;
22060;SDS011;11194;48.092;-1.382;2023-07-29T13:56:34;3.40;;;1.23;;
22060;SDS011;11194;48.092;-1.382;2023-07-29T13:59:00;4.03;;;1.60;;
22060;SDS011;11194;48.092;-1.382;2023-07-29T14:01:26;2.03;;;1.25;;
22060;SDS011;11194;48.092;-1.382;2023-07-29T14:03:52;3.20;;;1.48;;
22060;SDS011;11194;48.092;-1.382;2023-07-29T14:06:18;2.88;;;1.58;;
22060;SDS011;11194;48.092;-1.382;2023-07-29T14:08:44;1.60;;;1.20;;
22060;SDS011;11194;48.092;-1.382;2023-07-29T14:11:10;3.83;;;1.30;;
22060;SDS011;11194;48.092;-1.382;2023-07-29T14:13:36;3.72;;;1.60;;
22060;SDS011;11194;48.092;-1.382;2023-07-29T14:16:02;3.00;;;1.33;;
22060;SDS011;11194;48.092;-1.382;2023-07-29T14:18:30;1.92;;;1.20;;
22060;SDS011;11194;48.092;-1.382;2023-07-29T14:20:56;1.92;;;1.30;;
22060;SDS011;11194;48.092;-1.382;2023-07-29T14:23:22;2.78;;;1.30;;
22060;SDS011;11194;48.092;-1.382;2023-07-29T14:25:48;3.90;;;1.50;;
22060;SDS011;11194;48.092;-1.382;2023-07-29T14:28:14;2.97;;;1.40;;
22060;SDS011;11194;48.092;-1.382;2023-07-29T14:30:40;2.60;;;1.25;;
22060;SDS011;11194;48.092;-1.382;2023-07-29T14:33:06;2.10;;;1.10;;
22060;SDS011;11194;48.092;-1.382;2023-07-29T14:35:32;1.75;;;1.00;;
22060;SDS011;11194;48.092;-1.382;2023-07-29T14:37:59;1.45;;;1.10;;
22060;SDS011;11194;48.092;-1.382;2023-07-29T14:40:25;4.53;;;1.10;;
22060;SDS011;11194;48.092;-1.382;2023-07-29T14:42:52;1.60;;;1.10;;
22060;SDS011;11194;48.092;-1.382;2023-07-29T14:45:18;1.80;;;1.10;;
22060;SDS011;11194;48.092;-1.382;2023-07-29T14:47:44;1.58;;;1.10;;
22060;SDS011;11194;48.092;-1.382;2023-07-29T14:50:10;1.50;;;1.08;;
22060;SDS011;11194;48.092;-1.382;2023-07-29T14:52:36;1.45;;;0.95;;
22060;SDS011;11194;48.092;-1.382;2023-07-29T14:55:03;1.48;;;1.00;;